Time;durP1;ratioP1;P1;durP2;ratioP2;P2;SDS_P1;SDS_P2;PMS_P1;PMS_P2;Temp;Humidity;BMP_temperature;BMP_pressure;BME280_temperature;BME280_humidity;BME280_pressure;Samples;Min_cycle;Max_cycle;Signal;HPM_P1;HPM_P2
2022/03/05 00:01:24;;;;;;;36.70;20.60;;;2.90;99.90;;;;;;5025807;28;20447;-85
2022/03/05 00:03:49;;;;;;;38.17;20.83;;;2.50;99.90;;;;;;5026005;28;20197;-87
2022/03/05 00:06:15;;;;;;;48.30;22.63;;;2.30;99.90;;;;;;5017647;28;20286;-83
2022/03/05 00:08:43;;;;;;;49.03;23.80;;;2.30;99.90;;;;;;5027663;28;20208;-85
2022/03/05 00:11:09;;;;;;;40.95;20.83;;;3.00;99.90;;;;;;5015165;28;20281;-86
2022/03/05 00:13:37;;;;;;;40.17;23.27;;;2.30;99.90;;;;;;5008340;28;20181;-85
2022/03/05 00:16:04;;;;;;;39.92;21.88;;;2.70;99.90;;;;;;5024390;28;20672;-85
2022/03/05 00:18:33;;;;;;;44.10;20.15;;;2.50;99.90;;;;;;5018659;28;20554;-85
2022/03/05 00:20:58;;;;;;;41.67;22.93;;;2.30;99.90;;;;;;5025206;28;20238;-87
2022/03/05 00:23:25;;;;;;;38.27;22.70;;;2.60;99.90;;;;;;5027889;28;20443;-85
2022/03/05 00:25:54;;;;;;;39.47;21.83;;;2.10;99.90;;;;;;5024611;28;20195;-86
2022/03/05 00:28:21;;;;;;;41.17;22.03;;;4.70;99.90;;;;;;5026346;28;20188;-86
2022/03/05 00:30:46;;;;;;;40.00;22.95;;;1.00;99.90;;;;;;5017043;28;20485;-86
2022/03/05 00:33:12;;;;;;;36.13;19.53;;;2.30;99.90;;;;;;5030631;28;20254;-86
2022/03/05 00:35:38;;;;;;;40.70;21.60;;;2.20;99.90;;;;;;5025675;28;20465;-85
2022/03/05 00:38:04;;;;;;;43.93;22.97;;;2.20;99.90;;;;;;5028630;28;20182;-88
2022/03/05 00:40:29;;;;;;;42.37;23.70;;;2.20;99.90;;;;;;5029127;28;20187;-86
2022/03/05 00:42:58;;;;;;;44.13;23.67;;;;;;;;;;5031979;28;20214;-85
2022/03/05 00:45:24;;;;;;;40.97;22.08;;;2.20;99.90;;;;;;5028332;28;20196;-86
2022/03/05 00:47:50;;;;;;;39.43;21.60;;;2.40;99.90;;;;;;5030690;28;20186;-83
2022/03/05 00:50:16;;;;;;;36.80;20.50;;;2.10;99.90;;;;;;5026727;28;20265;-86
2022/03/05 00:52:45;;;;;;;37.83;20.73;;;2.10;99.90;;;;;;5045472;28;20522;-86
2022/03/05 00:55:10;;;;;;;38.45;20.80;;;2.10;99.90;;;;;;5046424;28;20435;-85
2022/03/05 00:57:36;;;;;;;42.13;22.30;;;1.30;99.90;;;;;;5029859;28;20662;-85
2022/03/05 01:00:05;;;;;;;41.47;22.15;;;4.20;99.90;;;;;;5047850;28;20186;-85
2022/03/05 01:02:31;;;;;;;43.40;23.60;;;2.30;99.90;;;;;;5029385;28;20721;-85
2022/03/05 01:04:57;;;;;;;40.70;21.85;;;3.60;99.90;;;;;;5029301;28;20226;-85
2022/03/05 01:07:23;;;;;;;39.97;19.83;;;2.20;99.90;;;;;;5017147;28;20265;-85
2022/03/05 01:09:48;;;;;;;44.13;20.70;;;2.30;99.90;;;;;;5047067;28;20475;-86
2022/03/05 01:12:14;;;;;;;39.13;21.97;;;2.20;99.90;;;;;;5020957;28;20251;-85
2022/03/05 01:14:42;;;;;;;43.33;22.50;;;2.20;99.90;;;;;;5030429;28;20201;-85
2022/03/05 01:17:08;;;;;;;36.88;21.92;;;1.80;99.90;;;;;;5012790;28;20197;-86
2022/03/05 01:19:36;;;;;;;33.33;20.20;;;3.30;99.90;;;;;;5047081;28;20210;-86
2022/03/05 01:22:02;;;;;;;45.90;20.75;;;1.90;99.90;;;;;;5034635;28;20261;-85
2022/03/05 01:24:28;;;;;;;42.43;22.30;;;;;;;;;;5028423;28;20188;-85
2022/03/05 01:26:54;;;;;;;43.55;21.55;;;2.10;99.90;;;;;;5039556;28;20434;-85
2022/03/05 01:29:20;;;;;;;39.63;21.60;;;;;;;;;;5028883;28;20192;-85
2022/03/05 01:31:45;;;;;;;42.97;22.13;;;2.10;99.90;;;;;;5044214;28;20215;-86
2022/03/05 01:34:11;;;;;;;40.33;21.20;;;2.00;99.90;;;;;;5028484;28;20490;-86
2022/03/05 01:36:39;;;;;;;41.93;22.77;;;1.90;99.90;;;;;;5026179;28;20201;-85
2022/03/05 01:39:05;;;;;;;36.92;17.63;;;1.70;99.90;;;;;;5046189;28;20224;-85
2022/03/05 01:41:31;;;;;;;46.73;20.20;;;;;;;;;;5044952;28;20217;-85
2022/03/05 01:44:20;;;;;;;35.75;20.48;;;1.80;99.90;;;;;;5028959;28;20816;-86
2022/03/05 01:46:45;;;;;;;42.70;22.23;;;1.00;99.90;;;;;;5024511;28;20192;-86
2022/03/05 01:49:12;;;;;;;41.60;22.57;;;1.00;99.90;;;;;;5046072;28;20774;-87
2022/03/05 01:51:39;;;;;;;40.70;21.47;;;4.00;99.90;;;;;;5018805;23;20423;-87
2022/03/05 01:54:05;;;;;;;43.92;22.17;;;1.60;99.90;;;;;;5006864;28;20431;-87
2022/03/05 01:56:32;;;;;;;42.55;21.85;;;1.50;99.90;;;;;;5004955;28;20245;-87
2022/03/05 01:58:59;;;;;;;41.42;21.83;;;4.60;99.90;;;;;;5004440;28;20196;-87
2022/03/05 02:01:26;;;;;;;42.72;22.08;;;1.40;99.90;;;;;;5004957;28;20444;-87
2022/03/05 02:03:52;;;;;;;41.85;23.13;;;1.20;99.90;;;;;;5008368;28;20254;-87
2022/03/05 02:08:51;;;;;;;35.10;19.27;;;1.20;99.90;;;;;;4972942;28;20672;-82
2022/03/05 02:11:17;;;;;;;43.97;22.83;;;1.20;99.90;;;;;;4981403;28;20492;-82
2022/03/05 02:14:18;;;;;;;39.92;21.90;;;1.20;99.90;;;;;;4983966;28;20193;-82
2022/03/05 02:16:45;;;;;;;40.47;22.45;;;1.20;99.90;;;;;;4988962;28;20188;-83
2022/03/05 02:19:11;;;;;;;43.40;24.23;;;1.20;99.90;;;;;;4967095;28;20288;-84
2022/03/05 02:21:36;;;;;;;43.93;21.40;;;1.20;99.90;;;;;;5088722;22;20322;-85
2022/03/05 02:24:03;;;;;;;45.00;21.03;;;1.10;99.90;;;;;;5031790;28;20190;-84
2022/03/05 02:26:29;;;;;;;47.90;20.50;;;1.10;99.90;;;;;;5034650;28;20200;-84
2022/03/05 02:28:57;;;;;;;42.27;22.40;;;1.00;99.90;;;;;;5030052;28;20266;-84
2022/03/05 02:31:23;;;;;;;43.92;22.60;;;1.10;99.90;;;;;;5040737;28;20998;-84
2022/03/05 02:33:55;;;;;;;40.70;23.30;;;1.10;99.90;;;;;;5031223;28;20205;-84
2022/03/05 02:36:21;;;;;;;40.47;23.17;;;0.80;99.90;;;;;;5040597;28;20192;-84
2022/03/05 02:38:47;;;;;;;52.88;22.70;;;0.90;99.90;;;;;;5049390;28;20186;-83
2022/03/05 02:41:12;;;;;;;41.27;21.60;;;0.30;99.90;;;;;;5047919;28;20195;-84
2022/03/05 02:43:41;;;;;;;42.03;19.57;;;;;;;;;;5046994;28;20186;-84
2022/03/05 02:46:07;;;;;;;36.08;18.13;;;1.10;99.90;;;;;;5029657;28;20646;-83
2022/03/05 02:48:33;;;;;;;39.17;20.70;;;1.10;99.90;;;;;;5031569;28;20226;-83
2022/03/05 02:50:59;;;;;;;38.33;21.33;;;;;;;;;;5047353;28;20481;-83
2022/03/05 02:53:25;;;;;;;45.25;21.75;;;1.10;99.90;;;;;;5024774;28;20533;-84
2022/03/05 02:55:51;;;;;;;41.23;22.33;;;1.20;99.90;;;;;;5029856;28;20294;-84
2022/03/05 02:58:16;;;;;;;31.73;19.13;;;1.20;99.90;;;;;;5031632;28;20187;-83
2022/03/05 03:00:42;;;;;;;39.70;20.53;;;1.00;99.90;;;;;;5029132;28;20188;-84
2022/03/05 03:03:08;;;;;;;32.90;19.03;;;1.80;99.90;;;;;;5041146;28;20182;-84
2022/03/05 03:05:34;;;;;;;38.75;20.23;;;1.20;99.90;;;;;;5046531;28;20205;-84
2022/03/05 03:08:00;;;;;;;41.13;22.17;;;;;;;;;;5049287;28;20177;-83
2022/03/05 03:10:29;;;;;;;45.00;20.10;;;1.10;99.90;;;;;;5046906;28;20687;-83
2022/03/05 03:12:55;;;;;;;43.27;21.33;;;-0.10;99.90;;;;;;5030902;28;20549;-83
2022/03/05 03:15:20;;;;;;;41.50;21.00;;;0.60;99.90;;;;;;5019391;28;20440;-83
2022/03/05 03:17:49;;;;;;;38.73;21.57;;;1.10;99.90;;;;;;5048667;28;20933;-83
2022/03/05 03:20:17;;;;;;;41.53;20.50;;;3.10;99.90;;;;;;5045994;28;20289;-83
2022/03/05 03:22:43;;;;;;;40.80;21.40;;;0.70;99.90;;;;;;5050655;28;20620;-83
2022/03/05 03:25:10;;;;;;;46.63;20.35;;;0.80;99.90;;;;;;5048787;28;20190;-83
2022/03/05 03:27:39;;;;;;;45.10;20.90;;;0.70;99.90;;;;;;5047086;28;20304;-83
2022/03/05 03:30:06;;;;;;;37.58;20.45;;;0.70;99.90;;;;;;5048218;28;20185;-83
2022/03/05 03:32:32;;;;;;;46.67;21.50;;;0.60;99.90;;;;;;5068553;28;20228;-83
2022/03/05 03:34:58;;;;;;;37.70;19.30;;;0.40;99.90;;;;;;5065071;28;20223;-83
2022/03/05 03:37:28;;;;;;;44.57;20.30;;;0.50;99.90;;;;;;5069521;28;20220;-84
2022/03/05 03:39:57;;;;;;;44.15;23.23;;;0.50;99.90;;;;;;5032794;28;20181;-84
2022/03/05 03:42:25;;;;;;;40.55;22.30;;;0.70;99.90;;;;;;5068388;28;20393;-83
2022/03/05 03:44:51;;;;;;;40.80;21.20;;;0.50;99.90;;;;;;5047904;28;20186;-84
2022/03/05 03:47:18;;;;;;;39.40;19.67;;;0.50;99.90;;;;;;5068556;28;20201;-83
2022/03/05 03:49:44;;;;;;;41.08;21.52;;;1.40;99.90;;;;;;5068113;28;20915;-83
2022/03/05 03:52:10;;;;;;;43.57;21.40;;;0.50;99.90;;;;;;5066240;28;20356;-83
2022/03/05 03:54:58;;;;;;;39.00;20.13;;;0.20;99.90;;;;;;5067965;28;20273;-83
2022/03/05 03:57:23;;;;;;;43.05;20.90;;;0.50;99.90;;;;;;5030082;28;20183;-83
2022/03/05 03:59:51;;;;;;;39.60;21.20;;;0.20;99.90;;;;;;5046666;28;20178;-83
2022/03/05 04:03:09;;;;;;;34.53;17.92;;;0.50;99.90;;;;;;5050267;28;20174;-83
2022/03/05 04:05:35;;;;;;;36.50;19.58;;;0.70;99.90;;;;;;5043438;28;20187;-83
2022/03/05 04:10:45;;;;;;;38.78;20.33;;;0.60;99.90;;;;;;5053777;28;20259;-83
2022/03/05 04:13:11;;;;;;;35.70;19.37;;;0.40;99.90;;;;;;5067421;28;20210;-83
2022/03/05 04:15:37;;;;;;;39.80;19.60;;;0.40;99.90;;;;;;5047301;28;20201;-84
2022/03/05 04:18:02;;;;;;;45.73;19.37;;;0.40;99.90;;;;;;5068061;28;20180;-84
2022/03/05 04:20:28;;;;;;;43.20;20.77;;;0.40;99.90;;;;;;5047432;28;20218;-83
2022/03/05 04:22:54;;;;;;;40.90;20.00;;;0.30;99.90;;;;;;5046153;28;20491;-83
2022/03/05 04:25:19;;;;;;;40.70;16.60;;;2.20;99.90;;;;;;5064732;28;20198;-84
2022/03/05 04:27:45;;;;;;;38.07;17.77;;;0.30;99.90;;;;;;5066952;28;20240;-83
2022/03/05 04:30:11;;;;;;;47.47;21.30;;;1.80;99.90;;;;;;5065269;28;20207;-83
2022/03/05 04:32:38;;;;;;;34.58;18.88;;;0.10;99.90;;;;;;5049207;28;20730;-83
2022/03/05 04:35:05;;;;;;;50.35;19.70;;;0.10;99.90;;;;;;5047389;28;20209;-83
2022/03/05 04:37:31;;;;;;;46.38;20.20;;;0.00;99.90;;;;;;5067256;28;20179;-83
2022/03/05 04:39:56;;;;;;;37.13;19.77;;;0.00;99.90;;;;;;5065171;28;20199;-84
2022/03/05 04:42:22;;;;;;;45.30;20.00;;;0.10;99.90;;;;;;5045382;28;20892;-83
2022/03/05 04:44:48;;;;;;;39.23;20.03;;;0.00;99.90;;;;;;5065875;28;20201;-84
2022/03/05 04:47:14;;;;;;;40.15;18.90;;;0.00;99.90;;;;;;5066012;28;20826;-83
2022/03/05 04:49:39;;;;;;;36.17;16.50;;;1.30;99.90;;;;;;5048481;28;20194;-84
2022/03/05 04:52:05;;;;;;;42.73;19.73;;;-0.10;99.90;;;;;;5064844;28;20224;-83
2022/03/05 04:54:33;;;;;;;46.50;21.47;;;-0.10;99.90;;;;;;5066827;28;20187;-83
2022/03/05 04:56:59;;;;;;;43.17;21.40;;;-0.10;99.90;;;;;;5046637;28;20838;-84
2022/03/05 04:59:24;;;;;;;39.13;18.20;;;-0.10;99.90;;;;;;5048569;28;20182;-83
2022/03/05 05:01:52;;;;;;;37.87;19.97;;;0.40;99.90;;;;;;5064839;28;20198;-83
2022/03/05 05:04:18;;;;;;;42.60;18.27;;;0.10;99.90;;;;;;5045512;28;20198;-83
2022/03/05 05:06:44;;;;;;;38.20;18.97;;;1.60;99.90;;;;;;5046766;28;20555;-83
2022/03/05 05:09:09;;;;;;;37.63;19.75;;;0.00;99.90;;;;;;5066500;28;20431;-83
2022/03/05 05:11:35;;;;;;;43.83;20.47;;;-0.20;99.90;;;;;;5047082;28;20210;-83
2022/03/05 05:14:01;;;;;;;44.57;21.70;;;0.10;99.90;;;;;;5066735;28;20269;-82
2022/03/05 05:16:27;;;;;;;37.13;19.40;;;0.00;99.90;;;;;;5064645;28;20538;-84
2022/03/05 05:21:36;;;;;;;51.88;23.38;;;0.00;99.90;;;;;;5054653;28;20759;-83
2022/03/05 05:24:02;;;;;;;41.30;18.67;;;0.50;99.90;;;;;;5066648;28;20182;-83
2022/03/05 05:26:28;;;;;;;34.90;17.80;;;-0.10;99.90;;;;;;5064332;28;20612;-83
2022/03/05 05:28:54;;;;;;;43.50;18.70;;;-0.40;99.90;;;;;;5065995;28;20432;-82
2022/03/05 05:31:20;;;;;;;42.53;20.73;;;;;;;;;;5064174;28;20215;-83
2022/03/05 05:33:46;;;;;;;62.70;22.35;;;-0.10;99.90;;;;;;5045154;28;20561;-83
2022/03/05 05:36:13;;;;;;;46.70;19.10;;;-0.30;99.90;;;;;;5047962;28;20268;-83
2022/03/05 05:38:39;;;;;;;38.72;17.98;;;-0.60;99.90;;;;;;5064337;28;20733;-83
2022/03/05 05:41:05;;;;;;;39.90;17.08;;;1.80;99.90;;;;;;5048543;28;20190;-83
2022/03/05 05:43:31;;;;;;;41.10;19.95;;;-2.20;99.90;;;;;;5064604;28;20197;-83
2022/03/05 05:45:57;;;;;;;36.33;16.17;;;-0.30;99.90;;;;;;5065557;28;20177;-83
2022/03/05 05:48:23;;;;;;;38.03;18.43;;;;;;;;;;5045650;28;20790;-83
2022/03/05 05:50:49;;;;;;;43.40;17.88;;;-0.20;99.90;;;;;;5047464;28;20214;-83
2022/03/05 05:53:14;;;;;;;43.77;18.90;;;-0.80;99.90;;;;;;5045793;28;20581;-83
2022/03/05 05:55:41;;;;;;;39.00;18.90;;;-0.30;99.90;;;;;;5047560;28;20264;-84
2022/03/05 05:58:06;;;;;;;45.65;19.60;;;-0.20;99.90;;;;;;5044778;28;20197;-83
2022/03/05 06:00:32;;;;;;;44.67;17.47;;;-0.20;99.90;;;;;;5052282;28;20174;-82
2022/03/05 06:02:58;;;;;;;30.17;14.03;;;;;;;;;;5049997;28;20284;-83
2022/03/05 06:05:24;;;;;;;41.07;18.87;;;-0.30;99.90;;;;;;5069790;28;20231;-84
2022/03/05 06:07:49;;;;;;;41.07;16.97;;;1.30;99.90;;;;;;5067387;28;20929;-84
2022/03/05 06:10:15;;;;;;;35.60;16.93;;;;;;;;;;5052257;28;20174;-83
2022/03/05 06:12:41;;;;;;;32.00;16.85;;;-0.20;99.90;;;;;;5067099;28;20210;-83
2022/03/05 06:15:09;;;;;;;35.13;16.63;;;0.30;99.90;;;;;;5069359;28;20596;-83
2022/03/05 06:17:40;;;;;;;30.77;15.57;;;-0.10;99.90;;;;;;5043447;28;20657;-83
2022/03/05 06:20:07;;;;;;;40.70;16.65;;;0.30;99.90;;;;;;5051248;28;20433;-83
2022/03/05 06:22:33;;;;;;;36.95;17.45;;;0.40;99.90;;;;;;5057899;28;20211;-83
2022/03/05 06:24:58;;;;;;;31.00;15.50;;;-1.10;99.90;;;;;;5048135;28;20620;-84
2022/03/05 06:27:24;;;;;;;31.90;15.73;;;1.10;99.90;;;;;;5048681;28;20779;-84
2022/03/05 06:29:50;;;;;;;32.33;15.90;;;;;;;;;;5050579;28;20595;-84
2022/03/05 06:32:16;;;;;;;39.03;16.38;;;-0.20;99.90;;;;;;5048951;28;20702;-83
2022/03/05 06:34:41;;;;;;;31.83;16.00;;;0.80;99.90;;;;;;4711340;28;10000602;-84
2022/03/05 06:37:07;;;;;;;32.47;16.60;;;-0.10;99.90;;;;;;5066109;28;20377;-84
2022/03/05 06:39:33;;;;;;;34.60;17.37;;;-0.20;99.90;;;;;;5063918;28;20724;-83
2022/03/05 06:41:58;;;;;;;34.83;17.93;;;-0.30;99.90;;;;;;5065992;28;20190;-82
2022/03/05 06:44:24;;;;;;;38.83;17.63;;;-0.10;99.90;;;;;;5046648;28;20396;-83
2022/03/05 06:46:50;;;;;;;34.27;15.57;;;-0.10;99.90;;;;;;5049683;28;20186;-83
2022/03/05 06:49:34;;;;;;;29.40;14.90;;;0.00;99.90;;;;;;5064440;28;20194;-83
2022/03/05 06:52:00;;;;;;;33.33;16.70;;;0.00;99.90;;;;;;5045867;28;20288;-83
2022/03/05 06:54:26;;;;;;;41.37;18.20;;;;;;;;;;5045385;28;20555;-83
2022/03/05 06:57:00;;;;;;;40.77;18.50;;;0.10;99.90;;;;;;5043981;28;20204;-82
2022/03/05 06:59:26;;;;;;;34.38;15.70;;;0.20;99.90;;;;;;5063330;28;20479;-82
2022/03/05 07:01:53;;;;;;;36.93;18.63;;;0.20;99.90;;;;;;5064543;28;20186;-84
2022/03/05 07:04:19;;;;;;;31.43;14.50;;;-0.20;99.90;;;;;;5046011;28;20445;-84
2022/03/05 07:06:44;;;;;;;30.70;13.07;;;0.30;99.90;;;;;;5066381;28;20484;-83
2022/03/05 07:09:10;;;;;;;32.37;16.63;;;0.40;99.90;;;;;;5060056;28;20610;-84
2022/03/05 07:11:35;;;;;;;27.37;14.60;;;1.50;99.90;;;;;;5052061;28;20207;-84
2022/03/05 07:14:01;;;;;;;27.10;14.73;;;2.20;99.90;;;;;;5066302;28;20195;-84
2022/03/05 07:16:27;;;;;;;25.20;14.83;;;3.30;99.90;;;;;;5046480;28;20267;-84
2022/03/05 07:18:55;;;;;;;28.83;15.13;;;4.30;99.90;;;;;;5049537;28;20233;-84
2022/03/05 07:21:20;;;;;;;21.90;14.07;;;4.30;99.90;;;;;;5048558;28;20226;-84
2022/03/05 07:23:48;;;;;;;24.50;13.83;;;5.30;99.90;;;;;;5067729;28;20477;-84
2022/03/05 07:26:16;;;;;;;23.87;15.07;;;5.90;99.90;;;;;;5045960;28;20503;-84
2022/03/05 07:28:42;;;;;;;24.80;15.17;;;5.70;99.90;;;;;;5049100;28;20400;-84
2022/03/05 07:31:08;;;;;;;30.60;16.80;;;6.90;99.90;;;;;;5062353;28;20457;-84
2022/03/05 07:33:33;;;;;;;22.57;15.33;;;8.80;99.90;;;;;;5068879;28;20198;-83
2022/03/05 07:35:59;;;;;;;26.77;16.87;;;7.70;99.90;;;;;;5048327;28;20638;-84
2022/03/05 07:38:25;;;;;;;22.03;14.37;;;9.50;99.90;;;;;;5050432;28;20170;-83
2022/03/05 07:40:51;;;;;;;21.57;14.30;;;9.70;99.90;;;;;;5046828;28;20199;-83
2022/03/05 07:43:17;;;;;;;29.63;15.77;;;7.60;99.50;;;;;;5068063;28;20456;-84
2022/03/05 07:45:43;;;;;;;26.50;17.30;;;8.20;99.40;;;;;;5046251;28;20199;-84
2022/03/05 07:48:09;;;;;;;26.20;17.00;;;9.60;98.60;;;;;;5050262;28;20760;-84
2022/03/05 07:50:35;;;;;;;26.23;15.93;;;8.60;97.40;;;;;;5048710;28;20428;-83
2022/03/05 07:53:00;;;;;;;22.27;16.73;;;9.00;96.60;;;;;;5050302;28;20789;-83
2022/03/05 07:55:29;;;;;;;22.60;15.23;;;9.40;95.70;;;;;;5051842;28;20728;-82
2022/03/05 07:57:54;;;;;;;23.57;15.30;;;9.50;95.20;;;;;;4702120;28;10000591;-80
2022/03/05 08:00:23;;;;;;;27.10;17.10;;;9.50;94.40;;;;;;5046947;28;20200;-83
2022/03/05 08:02:52;;;;;;;24.37;15.63;;;11.10;93.10;;;;;;5059834;28;20267;-80
2022/03/05 08:08:04;;;;;;;24.67;14.70;;;9.80;92.00;;;;;;4974562;26;20478;-83
2022/03/05 08:10:30;;;;;;;23.13;16.20;;;10.30;89.50;;;;;;5032022;28;20431;-82
2022/03/05 08:12:56;;;;;;;23.77;16.73;;;10.40;85.70;;;;;;5032170;28;20452;-82
2022/03/05 08:15:21;;;;;;;23.30;16.90;;;10.50;86.40;;;;;;5028234;28;20995;-82
2022/03/05 08:18:00;;;;;;;23.73;16.43;;;10.90;81.90;;;;;;5030638;28;20671;-83
2022/03/05 08:20:28;;;;;;;22.77;16.43;;;11.00;78.20;;;;;;5037719;28;20577;-84
2022/03/05 08:22:58;;;;;;;25.30;16.50;;;11.70;74.80;;;;;;5022659;28;20426;-83
2022/03/05 08:25:24;;;;;;;21.87;15.77;;;11.40;70.50;;;;;;5039465;28;20842;-82
2022/03/05 08:27:50;;;;;;;23.47;16.83;;;12.40;70.30;;;;;;5025555;28;20434;-83
2022/03/05 08:30:16;;;;;;;20.37;15.40;;;13.10;63.80;;;;;;5024147;28;20437;-83
2022/03/05 08:32:43;;;;;;;21.80;15.87;;;12.40;57.40;;;;;;5023966;28;20347;-83
2022/03/05 08:35:10;;;;;;;24.20;15.60;;;13.10;55.20;;;;;;5016246;28;20408;-82
2022/03/05 08:37:44;;;;;;;24.40;15.53;;;13.10;54.10;;;;;;5014226;28;20457;-83
2022/03/05 08:40:12;;;;;;;24.53;15.90;;;13.40;53.10;;;;;;5026222;28;20465;-84
2022/03/05 08:42:38;;;;;;;20.93;15.87;;;14.10;51.50;;;;;;5037597;28;20952;-83
2022/03/05 08:45:08;;;;;;;20.40;14.60;;;14.30;48.40;;;;;;5039132;28;20477;-83
2022/03/05 08:47:34;;;;;;;19.00;15.07;;;14.90;47.80;;;;;;5025297;28;20484;-83
2022/03/05 08:50:00;;;;;;;20.27;15.53;;;14.70;46.10;;;;;;5039377;28;20890;-83
2022/03/05 08:52:25;;;;;;;24.17;15.27;;;15.40;45.70;;;;;;5026951;28;20475;-83
2022/03/05 08:54:51;;;;;;;32.27;18.20;;;15.50;43.70;;;;;;5046556;28;20170;-82
2022/03/05 08:57:17;;;;;;;22.93;16.83;;;15.90;42.40;;;;;;5025609;28;20611;-83
2022/03/05 08:59:42;;;;;;;21.03;16.60;;;15.70;41.80;;;;;;5026726;28;20168;-83
2022/03/05 09:02:08;;;;;;;25.97;16.10;;;16.40;41.90;;;;;;5025028;28;20822;-84
2022/03/05 09:04:34;;;;;;;20.43;16.23;;;17.10;41.20;;;;;;5026707;28;20202;-83
2022/03/05 09:07:00;;;;;;;21.83;15.70;;;16.80;40.40;;;;;;5006107;28;20254;-82
2022/03/05 09:09:33;;;;;;;20.53;16.20;;;16.20;39.30;;;;;;5026605;28;20164;-83
2022/03/05 09:12:05;;;;;;;20.20;16.73;;;16.80;39.80;;;;;;5019545;28;20526;-83
2022/03/05 09:14:30;;;;;;;19.83;16.30;;;16.40;38.80;;;;;;5026630;28;20909;-82
2022/03/05 09:16:56;;;;;;;22.43;16.80;;;16.60;38.20;;;;;;5023998;28;20491;-83
2022/03/05 09:19:25;;;;;;;24.77;17.63;;;16.80;38.40;;;;;;5026080;28;20600;-83
2022/03/05 09:21:51;;;;;;;19.97;16.53;;;17.20;37.70;;;;;;5025907;28;20251;-83
2022/03/05 09:24:17;;;;;;;24.87;16.23;;;17.50;37.00;;;;;;5016199;28;20858;-82
2022/03/05 09:26:42;;;;;;;21.13;16.70;;;17.20;36.60;;;;;;5032946;28;20196;-84
2022/03/05 09:29:08;;;;;;;24.23;16.00;;;16.40;36.20;;;;;;5028526;28;20678;-83
2022/03/05 09:31:34;;;;;;;18.40;15.93;;;16.80;37.20;;;;;;5028007;28;20219;-82
2022/03/05 09:33:59;;;;;;;19.77;16.07;;;17.30;35.70;;;;;;5027364;28;20622;-83
2022/03/05 09:36:25;;;;;;;18.17;15.37;;;17.10;35.10;;;;;;4678447;28;9999690;-83
2022/03/05 09:38:51;;;;;;;20.27;16.27;;;17.00;35.20;;;;;;5036077;28;20414;-83
2022/03/05 09:41:17;;;;;;;21.00;17.50;;;17.60;35.10;;;;;;5033012;28;20217;-83
2022/03/05 09:43:43;;;;;;;20.10;17.00;;;18.50;35.20;;;;;;5028213;28;20259;-84
2022/03/05 09:46:10;;;;;;;20.47;17.10;;;18.40;34.40;;;;;;5011978;28;20254;-83
2022/03/05 09:48:39;;;;;;;20.70;16.97;;;18.10;33.90;;;;;;5031533;28;20418;-83
2022/03/05 09:51:04;;;;;;;21.73;16.13;;;18.50;33.80;;;;;;5036851;28;20458;-84
2022/03/05 09:53:31;;;;;;;22.80;16.80;;;19.40;34.30;;;;;;5014194;28;20852;-85
2022/03/05 09:55:57;;;;;;;22.70;18.13;;;19.30;33.00;;;;;;5022197;28;20195;-83
2022/03/05 09:58:22;;;;;;;19.30;17.00;;;19.00;33.80;;;;;;5024004;28;20529;-84
2022/03/05 10:00:49;;;;;;;19.70;16.43;;;19.70;33.70;;;;;;5022191;28;20243;-85
2022/03/05 10:03:15;;;;;;;18.57;16.70;;;19.00;33.10;;;;;;5021601;28;20191;-85
2022/03/05 10:05:43;;;;;;;20.77;17.30;;;19.70;32.90;;;;;;5025833;28;20510;-83
2022/03/05 10:08:15;;;;;;;22.33;17.30;;;19.40;32.70;;;;;;5011448;28;20434;-83
2022/03/05 10:10:45;;;;;;;21.03;16.80;;;19.10;32.90;;;;;;5025817;28;20426;-83
2022/03/05 10:13:31;;;;;;;20.77;16.40;;;18.60;33.30;;;;;;5029874;28;20430;-83
2022/03/05 10:15:59;;;;;;;17.57;14.77;;;18.90;32.60;;;;;;5012961;28;20529;-83
2022/03/05 10:18:37;;;;;;;19.03;15.00;;;19.90;31.80;;;;;;5024060;28;20833;-83
2022/03/05 10:21:08;;;;;;;19.83;15.57;;;20.10;31.60;;;;;;4662134;28;10001160;-83
2022/03/05 10:23:38;;;;;;;17.10;14.93;;;20.10;30.70;;;;;;5033671;28;20924;-82
2022/03/05 10:26:09;;;;;;;15.67;14.07;;;20.60;30.40;;;;;;5008704;28;20450;-83
2022/03/05 10:28:37;;;;;;;15.87;13.40;;;20.90;30.40;;;;;;5028592;28;20433;-83
2022/03/05 10:31:13;;;;;;;17.30;15.10;;;20.90;29.70;;;;;;5034921;28;21305;-82
2022/03/05 10:33:44;;;;;;;18.20;15.30;;;20.80;29.30;;;;;;5041828;28;20425;-84
2022/03/05 10:36:20;;;;;;;15.10;13.20;;;19.70;29.50;;;;;;5012030;28;20440;-83
2022/03/05 10:38:52;;;;;;;15.43;13.73;;;19.30;30.10;;;;;;5019094;28;20476;-84
2022/03/05 10:41:20;;;;;;;14.40;11.77;;;19.50;29.30;;;;;;5019593;28;20516;-84
2022/03/05 10:44:01;;;;;;;17.33;14.37;;;19.20;29.00;;;;;;5027664;28;21180;-82
2022/03/05 10:46:43;;;;;;;18.07;14.13;;;19.00;29.40;;;;;;5022690;28;20442;-83
2022/03/05 10:49:15;;;;;;;18.53;13.70;;;18.80;29.30;;;;;;5035733;28;20488;-85
2022/03/05 10:51:40;;;;;;;15.90;13.90;;;19.20;29.30;;;;;;5007992;28;20466;-83
2022/03/05 10:54:09;;;;;;;17.27;13.67;;;19.80;29.00;;;;;;5004449;28;20542;-83
2022/03/05 10:56:35;;;;;;;21.23;15.20;;;19.60;28.60;;;;;;5030710;28;20188;-82
2022/03/05 10:59:12;;;;;;;15.53;13.90;;;19.90;29.00;;;;;;5027394;28;20456;-79
2022/03/05 11:01:43;;;;;;;16.90;15.10;;;20.70;28.90;;;;;;5029444;28;20210;-81
2022/03/05 11:04:13;;;;;;;16.00;13.97;;;20.80;28.70;;;;;;5026972;28;20490;-82
2022/03/05 11:06:41;;;;;;;16.87;14.80;;;20.90;28.50;;;;;;5010422;28;20506;-82
2022/03/05 11:09:09;;;;;;;16.90;14.00;;;21.70;28.20;;;;;;5027733;28;20430;-82
2022/03/05 11:11:38;;;;;;;16.87;14.70;;;21.40;28.00;;;;;;5028204;28;20473;-81
2022/03/05 11:14:05;;;;;;;14.13;12.87;;;21.00;27.80;;;;;;5040256;28;20438;-79
2022/03/05 11:16:32;;;;;;;16.37;14.20;;;20.50;28.10;;;;;;5030942;28;20553;-81
2022/03/05 11:18:58;;;;;;;14.93;13.47;;;20.50;27.40;;;;;;5018162;28;20477;-82
2022/03/05 11:21:25;;;;;;;16.07;14.37;;;20.10;27.80;;;;;;5019193;28;20502;-83
2022/03/05 11:23:52;;;;;;;16.10;14.37;;;20.40;28.10;;;;;;5028485;28;20541;-83
2022/03/05 11:26:18;;;;;;;15.63;14.00;;;20.60;27.60;;;;;;5030452;28;20421;-83
2022/03/05 11:28:49;;;;;;;15.13;13.63;;;20.10;27.80;;;;;;5009275;28;20439;-84
2022/03/05 11:31:35;;;;;;;14.10;12.23;;;20.10;27.70;;;;;;5028342;28;20576;-83
2022/03/05 11:34:29;;;;;;;14.80;13.27;;;20.40;27.80;;;;;;5021030;28;20830;-82
2022/03/05 11:36:55;;;;;;;14.40;12.87;;;20.50;27.70;;;;;;5027886;28;20426;-85
2022/03/05 11:39:37;;;;;;;13.97;12.50;;;20.30;28.00;;;;;;5026122;28;20426;-83
2022/03/05 11:42:08;;;;;;;14.67;13.27;;;20.10;27.60;;;;;;5030107;28;20195;-84
2022/03/05 11:44:38;;;;;;;15.87;14.20;;;19.90;27.70;;;;;;5017230;28;20433;-82
2022/03/05 11:47:19;;;;;;;15.40;13.87;;;20.20;27.70;;;;;;5030002;28;20437;-80
2022/03/05 11:49:59;;;;;;;14.67;13.17;;;20.80;27.40;;;;;;5036022;28;20430;-83
2022/03/05 11:52:43;;;;;;;16.47;13.30;;;20.60;27.60;;;;;;5013613;28;20568;-81
2022/03/05 11:55:11;;;;;;;14.77;13.23;;;19.60;27.90;;;;;;5027453;28;20726;-83
2022/03/05 11:57:39;;;;;;;16.57;14.80;;;20.00;28.00;;;;;;5031234;28;20521;-83
2022/03/05 12:00:05;;;;;;;17.00;15.20;;;20.40;27.40;;;;;;5028938;28;20426;-82
2022/03/05 12:02:41;;;;;;;15.63;13.67;;;19.70;27.20;;;;;;5030510;28;20535;-83
2022/03/05 12:05:07;;;;;;;16.70;15.10;;;19.50;27.70;;;;;;5027518;28;20426;-82
2022/03/05 12:07:39;;;;;;;15.40;13.80;;;19.80;27.50;;;;;;5029639;28;20534;-84
2022/03/05 12:10:12;;;;;;;16.33;14.60;;;20.00;27.50;;;;;;5027901;28;20470;-84
2022/03/05 12:12:55;;;;;;;16.60;14.33;;;20.40;27.30;;;;;;4995651;28;20489;-82
2022/03/05 12:15:47;;;;;;;16.30;14.57;;;19.60;27.10;;;;;;5029686;28;20443;-83
2022/03/05 12:18:15;;;;;;;16.00;14.40;;;19.60;27.40;;;;;;5022796;28;20445;-85
2022/03/05 12:20:44;;;;;;;16.83;14.00;;;20.10;27.20;;;;;;5026197;28;20545;-83
2022/03/05 12:23:17;;;;;;;15.03;13.53;;;19.80;27.40;;;;;;5026059;28;20448;-85
2022/03/05 12:25:45;;;;;;;14.97;13.47;;;20.20;27.10;;;;;;5008182;28;20490;-85
2022/03/05 12:28:23;;;;;;;15.00;13.40;;;20.00;27.10;;;;;;5017315;28;20923;-85
2022/03/05 12:30:49;;;;;;;16.40;14.60;;;20.90;27.10;;;;;;5026205;28;20469;-86
2022/03/05 12:33:16;;;;;;;15.50;13.93;;;22.10;27.80;;;;;;5013205;28;20457;-86
2022/03/05 12:35:45;;;;;;;15.43;13.80;;;21.40;26.60;;;;;;5025070;28;20651;-86
2022/03/05 12:38:14;;;;;;;14.80;13.20;;;21.30;26.50;;;;;;5027677;28;20425;-83
2022/03/05 12:40:40;;;;;;;15.23;13.73;;;20.70;26.30;;;;;;5024108;28;20623;-84
2022/03/05 12:43:07;;;;;;;14.77;13.13;;;21.20;26.50;;;;;;5009726;28;20450;-86
2022/03/05 12:45:37;;;;;;;15.37;13.97;;;21.80;27.00;;;;;;5026914;28;20229;-84
2022/03/05 12:48:18;;;;;;;17.07;15.33;;;22.00;26.60;;;;;;5026005;28;20449;-84
2022/03/05 12:50:47;;;;;;;14.87;13.27;;;21.70;26.60;;;;;;5012732;28;20437;-87